sensor_id;sensor_type;location;lat;lon;timestamp;temperature;humidity
21331;DHT22;10824;51.632;4.950;2023-02-01T00:01:08;5.40;97.90
21331;DHT22;10824;51.632;4.950;2023-02-01T00:03:35;5.30;98.30
21331;DHT22;10824;51.632;4.950;2023-02-01T00:06:03;5.20;99.20
21331;DHT22;10824;51.632;4.950;2023-02-01T00:08:30;5.20;99.60
21331;DHT22;10824;51.632;4.950;2023-02-01T00:11:02;5.20;99.20
21331;DHT22;10824;51.632;4.950;2023-02-01T00:13:32;5.20;99.20
21331;DHT22;10824;51.632;4.950;2023-02-01T00:18:31;5.20;98.70
21331;DHT22;10824;51.632;4.950;2023-02-01T00:20:58;5.20;98.70
21331;DHT22;10824;51.632;4.950;2023-02-01T00:23:28;5.20;98.50
21331;DHT22;10824;51.632;4.950;2023-02-01T00:25:55;5.30;98.10
21331;DHT22;10824;51.632;4.950;2023-02-01T00:28:22;5.30;98.00
21331;DHT22;10824;51.632;4.950;2023-02-01T00:30:56;5.30;97.70
21331;DHT22;10824;51.632;4.950;2023-02-01T00:33:24;5.40;97.50
21331;DHT22;10824;51.632;4.950;2023-02-01T00:35:51;5.40;97.00
21331;DHT22;10824;51.632;4.950;2023-02-01T00:38:22;5.40;95.70
21331;DHT22;10824;51.632;4.950;2023-02-01T00:40:50;5.40;95.10
21331;DHT22;10824;51.632;4.950;2023-02-01T00:43:17;5.50;94.90
21331;DHT22;10824;51.632;4.950;2023-02-01T00:45:46;5.40;95.70
21331;DHT22;10824;51.632;4.950;2023-02-01T00:48:13;5.40;95.50
21331;DHT22;10824;51.632;4.950;2023-02-01T00:50:43;5.40;95.50
21331;DHT22;10824;51.632;4.950;2023-02-01T00:53:11;5.50;95.80
21331;DHT22;10824;51.632;4.950;2023-02-01T00:55:38;5.60;94.90
21331;DHT22;10824;51.632;4.950;2023-02-01T00:58:05;5.50;94.90
21331;DHT22;10824;51.632;4.950;2023-02-01T01:00:36;5.60;94.30
21331;DHT22;10824;51.632;4.950;2023-02-01T01:03:04;5.60;93.30
21331;DHT22;10824;51.632;4.950;2023-02-01T01:05:45;5.60;92.80
21331;DHT22;10824;51.632;4.950;2023-02-01T01:08:13;5.70;92.50
21331;DHT22;10824;51.632;4.950;2023-02-01T01:10:40;5.70;92.80
21331;DHT22;10824;51.632;4.950;2023-02-01T01:13:08;5.70;91.60
21331;DHT22;10824;51.632;4.950;2023-02-01T01:15:37;5.60;92.20
21331;DHT22;10824;51.632;4.950;2023-02-01T01:18:04;5.70;90.80
21331;DHT22;10824;51.632;4.950;2023-02-01T01:20:34;5.60;90.90
21331;DHT22;10824;51.632;4.950;2023-02-01T01:23:01;5.70;90.90
21331;DHT22;10824;51.632;4.950;2023-02-01T01:25:28;5.70;90.80
21331;DHT22;10824;51.632;4.950;2023-02-01T01:27:56;5.70;90.80
21331;DHT22;10824;51.632;4.950;2023-02-01T01:30:23;5.70;90.40
21331;DHT22;10824;51.632;4.950;2023-02-01T01:32:52;5.60;90.60
21331;DHT22;10824;51.632;4.950;2023-02-01T01:35:19;5.60;90.80
21331;DHT22;10824;51.632;4.950;2023-02-01T01:37:46;5.60;91.00
21331;DHT22;10824;51.632;4.950;2023-02-01T01:40:14;5.60;91.70
21331;DHT22;10824;51.632;4.950;2023-02-01T01:42:42;5.60;92.30
21331;DHT22;10824;51.632;4.950;2023-02-01T01:47:59;5.70;93.80
21331;DHT22;10824;51.632;4.950;2023-02-01T01:50:48;5.60;94.30
21331;DHT22;10824;51.632;4.950;2023-02-01T01:53:20;5.60;95.00
21331;DHT22;10824;51.632;4.950;2023-02-01T01:55:50;5.70;94.90
21331;DHT22;10824;51.632;4.950;2023-02-01T01:58:21;5.70;96.20
21331;DHT22;10824;51.632;4.950;2023-02-01T02:00:48;5.70;96.20
21331;DHT22;10824;51.632;4.950;2023-02-01T02:05:48;5.70;96.70
21331;DHT22;10824;51.632;4.950;2023-02-01T02:08:17;5.80;96.80
21331;DHT22;10824;51.632;4.950;2023-02-01T02:10:50;5.70;96.80
21331;DHT22;10824;51.632;4.950;2023-02-01T02:13:39;5.80;97.00
21331;DHT22;10824;51.632;4.950;2023-02-01T02:19:19;5.80;96.40
21331;DHT22;10824;51.632;4.950;2023-02-01T02:35:59;5.80;97.90
21331;DHT22;10824;51.632;4.950;2023-02-01T02:41:38;5.80;98.30
21331;DHT22;10824;51.632;4.950;2023-02-01T02:53:51;5.80;98.10
21331;DHT22;10824;51.632;4.950;2023-02-01T02:56:39;5.80;97.70
21331;DHT22;10824;51.632;4.950;2023-02-01T02:59:26;5.80;97.90
21331;DHT22;10824;51.632;4.950;2023-02-01T03:02:15;5.80;97.70
21331;DHT22;10824;51.632;4.950;2023-02-01T03:05:02;5.80;98.10
21331;DHT22;10824;51.632;4.950;2023-02-01T03:08:00;5.80;98.00
21331;DHT22;10824;51.632;4.950;2023-02-01T03:13:01;5.80;98.40
21331;DHT22;10824;51.632;4.950;2023-02-01T03:15:51;5.70;98.20
21331;DHT22;10824;51.632;4.950;2023-02-01T03:20:55;5.80;98.70
21331;DHT22;10824;51.632;4.950;2023-02-01T03:23:28;5.70;98.40
21331;DHT22;10824;51.632;4.950;2023-02-01T03:25:58;5.80;99.30
21331;DHT22;10824;51.632;4.950;2023-02-01T03:28:28;5.80;98.80
21331;DHT22;10824;51.632;4.950;2023-02-01T03:30:57;5.80;99.10
21331;DHT22;10824;51.632;4.950;2023-02-01T03:33:25;5.80;98.80
21331;DHT22;10824;51.632;4.950;2023-02-01T03:35:59;5.80;99.50
21331;DHT22;10824;51.632;4.950;2023-02-01T03:49:18;5.70;99.90
21331;DHT22;10824;51.632;4.950;2023-02-01T03:51:48;5.80;99.90
21331;DHT22;10824;51.632;4.950;2023-02-01T03:54:17;5.80;99.90
21331;DHT22;10824;51.632;4.950;2023-02-01T03:56:46;5.80;99.90
21331;DHT22;10824;51.632;4.950;2023-02-01T03:59:14;5.80;99.90
21331;DHT22;10824;51.632;4.950;2023-02-01T04:01:42;5.80;99.90
21331;DHT22;10824;51.632;4.950;2023-02-01T04:04:09;5.80;99.90
21331;DHT22;10824;51.632;4.950;2023-02-01T04:06:38;5.70;99.90
21331;DHT22;10824;51.632;4.950;2023-02-01T04:09:05;5.70;99.90
21331;DHT22;10824;51.632;4.950;2023-02-01T04:11:32;5.70;99.90
21331;DHT22;10824;51.632;4.950;2023-02-01T04:13:59;5.80;99.90
21331;DHT22;10824;51.632;4.950;2023-02-01T04:16:31;5.80;99.90
21331;DHT22;10824;51.632;4.950;2023-02-01T04:19:00;5.80;99.90
21331;DHT22;10824;51.632;4.950;2023-02-01T04:21:28;5.80;99.90
21331;DHT22;10824;51.632;4.950;2023-02-01T04:23:55;5.90;99.90
21331;DHT22;10824;51.632;4.950;2023-02-01T04:26:24;5.80;99.90
21331;DHT22;10824;51.632;4.950;2023-02-01T04:28:51;5.80;99.90
21331;DHT22;10824;51.632;4.950;2023-02-01T04:31:20;5.80;99.90
21331;DHT22;10824;51.632;4.950;2023-02-01T04:33:54;5.80;99.90
21331;DHT22;10824;51.632;4.950;2023-02-01T04:36:22;5.80;99.90
21331;DHT22;10824;51.632;4.950;2023-02-01T04:38:50;5.80;99.90
21331;DHT22;10824;51.632;4.950;2023-02-01T04:41:18;5.80;99.90
21331;DHT22;10824;51.632;4.950;2023-02-01T04:43:46;5.80;99.90
21331;DHT22;10824;51.632;4.950;2023-02-01T04:46:14;5.80;99.90
21331;DHT22;10824;51.632;4.950;2023-02-01T04:48:41;5.80;99.90
21331;DHT22;10824;51.632;4.950;2023-02-01T04:51:10;5.70;99.90
21331;DHT22;10824;51.632;4.950;2023-02-01T04:53:37;5.70;99.90
21331;DHT22;10824;51.632;4.950;2023-02-01T04:56:04;5.70;99.90
21331;DHT22;10824;51.632;4.950;2023-02-01T04:58:31;5.80;99.90
21331;DHT22;10824;51.632;4.950;2023-02-01T05:00:58;5.80;99.90
21331;DHT22;10824;51.632;4.950;2023-02-01T05:03:35;5.80;99.90
21331;DHT22;10824;51.632;4.950;2023-02-01T05:06:03;5.80;99.90
21331;DHT22;10824;51.632;4.950;2023-02-01T05:08:33;5.80;99.90
21331;DHT22;10824;51.632;4.950;2023-02-01T05:11:05;5.80;99.90
21331;DHT22;10824;51.632;4.950;2023-02-01T05:13:33;5.90;99.90
21331;DHT22;10824;51.632;4.950;2023-02-01T05:16:15;5.90;99.90
21331;DHT22;10824;51.632;4.950;2023-02-01T05:18:45;5.80;99.90
21331;DHT22;10824;51.632;4.950;2023-02-01T05:21:12;6.00;99.70
21331;DHT22;10824;51.632;4.950;2023-02-01T05:23:39;6.00;99.90
21331;DHT22;10824;51.632;4.950;2023-02-01T05:26:25;6.00;99.40
21331;DHT22;10824;51.632;4.950;2023-02-01T05:28:52;6.10;99.40
21331;DHT22;10824;51.632;4.950;2023-02-01T05:31:20;6.00;99.00
21331;DHT22;10824;51.632;4.950;2023-02-01T05:33:52;6.00;99.40
21331;DHT22;10824;51.632;4.950;2023-02-01T05:36:19;6.00;99.90
21331;DHT22;10824;51.632;4.950;2023-02-01T05:38:46;6.00;99.50
21331;DHT22;10824;51.632;4.950;2023-02-01T05:41:13;6.10;98.90
21331;DHT22;10824;51.632;4.950;2023-02-01T05:43:40;6.10;99.20
21331;DHT22;10824;51.632;4.950;2023-02-01T05:46:07;6.10;98.90
21331;DHT22;10824;51.632;4.950;2023-02-01T05:48:37;6.10;98.20
21331;DHT22;10824;51.632;4.950;2023-02-01T05:51:04;6.10;99.10
21331;DHT22;10824;51.632;4.950;2023-02-01T05:53:31;6.10;99.40
21331;DHT22;10824;51.632;4.950;2023-02-01T05:55:59;6.10;99.70
21331;DHT22;10824;51.632;4.950;2023-02-01T05:58:26;6.10;99.20
21331;DHT22;10824;51.632;4.950;2023-02-01T06:00:53;6.10;99.10
21331;DHT22;10824;51.632;4.950;2023-02-01T06:03:20;6.00;99.30
21331;DHT22;10824;51.632;4.950;2023-02-01T06:05:47;6.00;99.60
21331;DHT22;10824;51.632;4.950;2023-02-01T06:08:14;6.00;99.90
21331;DHT22;10824;51.632;4.950;2023-02-01T06:10:41;6.00;99.90
21331;DHT22;10824;51.632;4.950;2023-02-01T06:13:09;6.00;99.70
21331;DHT22;10824;51.632;4.950;2023-02-01T06:15:37;6.00;99.90
21331;DHT22;10824;51.632;4.950;2023-02-01T06:18:04;6.00;99.90
21331;DHT22;10824;51.632;4.950;2023-02-01T06:20:31;6.00;99.90
21331;DHT22;10824;51.632;4.950;2023-02-01T06:23:02;6.00;99.90
21331;DHT22;10824;51.632;4.950;2023-02-01T06:25:31;6.00;99.90
21331;DHT22;10824;51.632;4.950;2023-02-01T06:28:01;6.00;99.70
21331;DHT22;10824;51.632;4.950;2023-02-01T06:30:29;6.00;98.90
21331;DHT22;10824;51.632;4.950;2023-02-01T06:32:57;6.10;98.40
21331;DHT22;10824;51.632;4.950;2023-02-01T06:35:25;6.00;98.80
21331;DHT22;10824;51.632;4.950;2023-02-01T06:37:52;6.00;98.90
21331;DHT22;10824;51.632;4.950;2023-02-01T06:40:24;6.00;99.20
21331;DHT22;10824;51.632;4.950;2023-02-01T06:42:51;6.00;97.90
21331;DHT22;10824;51.632;4.950;2023-02-01T06:45:18;6.00;98.10
21331;DHT22;10824;51.632;4.950;2023-02-01T06:47:45;6.00;97.80
21331;DHT22;10824;51.632;4.950;2023-02-01T06:50:12;6.00;97.30
21331;DHT22;10824;51.632;4.950;2023-02-01T06:52:40;6.00;97.90
21331;DHT22;10824;51.632;4.950;2023-02-01T06:55:08;6.10;97.50
21331;DHT22;10824;51.632;4.950;2023-02-01T06:57:35;6.10;96.90
21331;DHT22;10824;51.632;4.950;2023-02-01T07:00:07;6.00;97.40
21331;DHT22;10824;51.632;4.950;2023-02-01T07:02:37;6.00;97.90
21331;DHT22;10824;51.632;4.950;2023-02-01T07:05:05;6.00;98.20
21331;DHT22;10824;51.632;4.950;2023-02-01T07:07:32;6.00;98.30
21331;DHT22;10824;51.632;4.950;2023-02-01T07:09:59;6.00;98.00
21331;DHT22;10824;51.632;4.950;2023-02-01T07:12:26;6.00;97.80
21331;DHT22;10824;51.632;4.950;2023-02-01T07:14:54;6.00;98.00
21331;DHT22;10824;51.632;4.950;2023-02-01T07:17:21;6.00;98.60
21331;DHT22;10824;51.632;4.950;2023-02-01T07:19:48;6.00;98.60
21331;DHT22;10824;51.632;4.950;2023-02-01T07:22:18;6.00;98.30
21331;DHT22;10824;51.632;4.950;2023-02-01T07:24:45;6.00;98.80
21331;DHT22;10824;51.632;4.950;2023-02-01T07:27:12;5.90;99.00
21331;DHT22;10824;51.632;4.950;2023-02-01T07:29:39;6.00;99.30
21331;DHT22;10824;51.632;4.950;2023-02-01T07:32:06;5.90;99.70
21331;DHT22;10824;51.632;4.950;2023-02-01T07:34:33;5.90;99.90
21331;DHT22;10824;51.632;4.950;2023-02-01T07:37:01;6.00;99.80
21331;DHT22;10824;51.632;4.950;2023-02-01T07:39:28;6.00;99.90
21331;DHT22;10824;51.632;4.950;2023-02-01T07:41:58;6.00;99.90
21331;DHT22;10824;51.632;4.950;2023-02-01T07:44:25;6.00;99.90
21331;DHT22;10824;51.632;4.950;2023-02-01T07:46:52;6.00;99.90
21331;DHT22;10824;51.632;4.950;2023-02-01T07:49:19;6.10;99.90
21331;DHT22;10824;51.632;4.950;2023-02-01T07:51:46;6.10;99.90
21331;DHT22;10824;51.632;4.950;2023-02-01T07:54:14;6.10;99.90
21331;DHT22;10824;51.632;4.950;2023-02-01T07:56:41;6.10;99.90
21331;DHT22;10824;51.632;4.950;2023-02-01T07:59:08;6.10;99.90
21331;DHT22;10824;51.632;4.950;2023-02-01T08:01:35;6.10;99.90
21331;DHT22;10824;51.632;4.950;2023-02-01T08:04:03;6.10;99.90
21331;DHT22;10824;51.632;4.950;2023-02-01T08:06:32;6.10;99.90
21331;DHT22;10824;51.632;4.950;2023-02-01T08:09:00;6.10;99.90
21331;DHT22;10824;51.632;4.950;2023-02-01T08:11:28;6.10;99.90
21331;DHT22;10824;51.632;4.950;2023-02-01T08:13:56;6.20;99.90
21331;DHT22;10824;51.632;4.950;2023-02-01T08:16:23;6.20;99.90
21331;DHT22;10824;51.632;4.950;2023-02-01T08:18:51;6.20;99.90
21331;DHT22;10824;51.632;4.950;2023-02-01T08:21:24;6.20;99.90
21331;DHT22;10824;51.632;4.950;2023-02-01T08:23:52;6.20;99.90
21331;DHT22;10824;51.632;4.950;2023-02-01T08:26:24;6.20;99.90
21331;DHT22;10824;51.632;4.950;2023-02-01T08:28:57;6.30;99.90
21331;DHT22;10824;51.632;4.950;2023-02-01T08:31:26;6.30;99.90
21331;DHT22;10824;51.632;4.950;2023-02-01T08:33:56;6.30;99.90
21331;DHT22;10824;51.632;4.950;2023-02-01T08:36:25;6.40;99.90
21331;DHT22;10824;51.632;4.950;2023-02-01T08:38:53;6.40;99.90
21331;DHT22;10824;51.632;4.950;2023-02-01T08:41:22;6.40;99.90
21331;DHT22;10824;51.632;4.950;2023-02-01T08:43:50;6.40;99.90
21331;DHT22;10824;51.632;4.950;2023-02-01T08:46:17;6.40;99.70
21331;DHT22;10824;51.632;4.950;2023-02-01T08:48:46;6.40;99.50
21331;DHT22;10824;51.632;4.950;2023-02-01T08:51:15;6.50;98.70
21331;DHT22;10824;51.632;4.950;2023-02-01T08:53:42;6.40;98.40
21331;DHT22;10824;51.632;4.950;2023-02-01T08:56:11;6.50;98.60
21331;DHT22;10824;51.632;4.950;2023-02-01T08:58:39;6.50;98.70
21331;DHT22;10824;51.632;4.950;2023-02-01T09:01:13;6.50;98.60
21331;DHT22;10824;51.632;4.950;2023-02-01T09:03:41;6.50;98.30
21331;DHT22;10824;51.632;4.950;2023-02-01T09:06:10;6.60;98.30
21331;DHT22;10824;51.632;4.950;2023-02-01T09:08:38;6.60;97.70
21331;DHT22;10824;51.632;4.950;2023-02-01T09:11:09;6.70;97.50
21331;DHT22;10824;51.632;4.950;2023-02-01T09:13:37;6.70;97.20
21331;DHT22;10824;51.632;4.950;2023-02-01T09:16:04;6.80;98.10
21331;DHT22;10824;51.632;4.950;2023-02-01T09:18:32;6.80;96.80
21331;DHT22;10824;51.632;4.950;2023-02-01T09:20:59;6.90;96.00
21331;DHT22;10824;51.632;4.950;2023-02-01T09:23:26;6.90;95.30
21331;DHT22;10824;51.632;4.950;2023-02-01T09:25:53;6.90;95.20
21331;DHT22;10824;51.632;4.950;2023-02-01T09:28:20;6.90;95.00
21331;DHT22;10824;51.632;4.950;2023-02-01T09:30:47;7.00;94.30
21331;DHT22;10824;51.632;4.950;2023-02-01T09:33:14;7.00;93.40
21331;DHT22;10824;51.632;4.950;2023-02-01T09:35:41;7.00;93.40
21331;DHT22;10824;51.632;4.950;2023-02-01T09:38:08;7.10;93.60
21331;DHT22;10824;51.632;4.950;2023-02-01T09:40:35;7.20;92.80
21331;DHT22;10824;51.632;4.950;2023-02-01T09:48:44;7.30;92.60
21331;DHT22;10824;51.632;4.950;2023-02-01T09:51:29;7.30;90.20
21331;DHT22;10824;51.632;4.950;2023-02-01T09:57:28;7.40;89.40
21331;DHT22;10824;51.632;4.950;2023-02-01T09:59:39;7.50;88.90
21331;DHT22;10824;51.632;4.950;2023-02-01T10:02:33;7.60;87.80
21331;DHT22;10824;51.632;4.950;2023-02-01T10:05:03;7.70;85.50
21331;DHT22;10824;51.632;4.950;2023-02-01T10:10:17;7.80;84.30
21331;DHT22;10824;51.632;4.950;2023-02-01T10:26:25;7.60;84.70
21331;DHT22;10824;51.632;4.950;2023-02-01T10:28:56;7.60;83.90
21331;DHT22;10824;51.632;4.950;2023-02-01T10:31:27;7.60;84.60
21331;DHT22;10824;51.632;4.950;2023-02-01T10:33:58;7.60;83.80
21331;DHT22;10824;51.632;4.950;2023-02-01T10:36:39;7.60;84.10
21331;DHT22;10824;51.632;4.950;2023-02-01T10:39:11;7.60;83.90
21331;DHT22;10824;51.632;4.950;2023-02-01T10:41:39;7.60;82.40
21331;DHT22;10824;51.632;4.950;2023-02-01T10:44:15;7.60;83.50
21331;DHT22;10824;51.632;4.950;2023-02-01T10:46:45;7.70;82.40
21331;DHT22;10824;51.632;4.950;2023-02-01T10:51:54;7.60;82.70
21331;DHT22;10824;51.632;4.950;2023-02-01T10:54:35;7.60;82.50
21331;DHT22;10824;51.632;4.950;2023-02-01T10:57:26;7.60;82.80
21331;DHT22;10824;51.632;4.950;2023-02-01T10:59:55;7.50;83.00
21331;DHT22;10824;51.632;4.950;2023-02-01T11:02:33;7.70;81.50
21331;DHT22;10824;51.632;4.950;2023-02-01T11:05:09;7.60;82.50
21331;DHT22;10824;51.632;4.950;2023-02-01T11:07:38;7.70;82.00
21331;DHT22;10824;51.632;4.950;2023-02-01T11:10:09;7.60;82.60
21331;DHT22;10824;51.632;4.950;2023-02-01T11:12:54;7.70;80.70
21331;DHT22;10824;51.632;4.950;2023-02-01T11:15:23;7.80;80.80
21331;DHT22;10824;51.632;4.950;2023-02-01T11:17:52;7.80;79.10
21331;DHT22;10824;51.632;4.950;2023-02-01T11:20:38;7.80;79.60
21331;DHT22;10824;51.632;4.950;2023-02-01T11:23:17;7.80;78.60
21331;DHT22;10824;51.632;4.950;2023-02-01T11:25:49;7.80;77.20
21331;DHT22;10824;51.632;4.950;2023-02-01T11:28:18;7.80;78.60
21331;DHT22;10824;51.632;4.950;2023-02-01T11:30:48;7.80;79.10
21331;DHT22;10824;51.632;4.950;2023-02-01T11:33:19;7.80;79.20
21331;DHT22;10824;51.632;4.950;2023-02-01T11:35:48;7.80;79.60
21331;DHT22;10824;51.632;4.950;2023-02-01T11:38:29;7.80;79.50
21331;DHT22;10824;51.632;4.950;2023-02-01T11:43:59;7.80;80.40
21331;DHT22;10824;51.632;4.950;2023-02-01T11:46:33;7.80;78.90
21331;DHT22;10824;51.632;4.950;2023-02-01T12:09:05;7.90;76.50
21331;DHT22;10824;51.632;4.950;2023-02-01T12:18:03;7.90;77.20
21331;DHT22;10824;51.632;4.950;2023-02-01T12:21:06;7.90;77.40
21331;DHT22;10824;51.632;4.950;2023-02-01T12:23:44;8.00;76.90
21331;DHT22;10824;51.632;4.950;2023-02-01T12:26:33;8.00;76.10
21331;DHT22;10824;51.632;4.950;2023-02-01T12:43:09;8.10;75.30
21331;DHT22;10824;51.632;4.950;2023-02-01T12:45:40;8.10;75.70
21331;DHT22;10824;51.632;4.950;2023-02-01T12:50:50;8.20;75.10
21331;DHT22;10824;51.632;4.950;2023-02-01T12:56:12;8.30;76.30
21331;DHT22;10824;51.632;4.950;2023-02-01T12:58:53;8.40;76.10
21331;DHT22;10824;51.632;4.950;2023-02-01T13:04:12;8.30;76.90
21331;DHT22;10824;51.632;4.950;2023-02-01T13:07:11;8.30;77.30
21331;DHT22;10824;51.632;4.950;2023-02-01T13:10:11;8.40;77.50
21331;DHT22;10824;51.632;4.950;2023-02-01T13:12:59;8.30;77.80
21331;DHT22;10824;51.632;4.950;2023-02-01T13:15:48;8.30;78.00
21331;DHT22;10824;51.632;4.950;2023-02-01T13:18:21;8.30;78.80
21331;DHT22;10824;51.632;4.950;2023-02-01T13:21:04;8.40;78.40
21331;DHT22;10824;51.632;4.950;2023-02-01T13:23:38;8.40;77.80
21331;DHT22;10824;51.632;4.950;2023-02-01T13:26:06;8.30;78.70
21331;DHT22;10824;51.632;4.950;2023-02-01T13:34:46;8.40;78.50
21331;DHT22;10824;51.632;4.950;2023-02-01T13:40:18;8.40;78.10
21331;DHT22;10824;51.632;4.950;2023-02-01T13:45:53;8.50;79.70
21331;DHT22;10824;51.632;4.950;2023-02-01T13:48:28;8.40;80.30
21331;DHT22;10824;51.632;4.950;2023-02-01T13:50:57;8.40;80.50
21331;DHT22;10824;51.632;4.950;2023-02-01T13:53:36;8.40;80.80
21331;DHT22;10824;51.632;4.950;2023-02-01T13:56:14;8.30;80.80
21331;DHT22;10824;51.632;4.950;2023-02-01T13:58:45;8.30;81.00
21331;DHT22;10824;51.632;4.950;2023-02-01T14:03:49;8.30;80.50
21331;DHT22;10824;51.632;4.950;2023-02-01T14:09:34;8.30;80.00
21331;DHT22;10824;51.632;4.950;2023-02-01T14:12:42;8.30;80.00
21331;DHT22;10824;51.632;4.950;2023-02-01T14:15:27;8.30;80.00
21331;DHT22;10824;51.632;4.950;2023-02-01T14:17:55;8.30;80.00
21331;DHT22;10824;51.632;4.950;2023-02-01T14:20:41;8.20;81.00
21331;DHT22;10824;51.632;4.950;2023-02-01T14:23:16;8.30;81.20
21331;DHT22;10824;51.632;4.950;2023-02-01T14:25:44;8.20;81.80
21331;DHT22;10824;51.632;4.950;2023-02-01T14:28:28;8.30;81.40
21331;DHT22;10824;51.632;4.950;2023-02-01T14:30:57;8.30;81.40
21331;DHT22;10824;51.632;4.950;2023-02-01T14:33:27;8.30;81.40
21331;DHT22;10824;51.632;4.950;2023-02-01T14:36:08;8.30;81.10
21331;DHT22;10824;51.632;4.950;2023-02-01T14:38:48;8.30;81.70
21331;DHT22;10824;51.632;4.950;2023-02-01T14:41:28;8.30;82.10
21331;DHT22;10824;51.632;4.950;2023-02-01T14:52:40;8.20;83.80
21331;DHT22;10824;51.632;4.950;2023-02-01T14:55:23;8.20;84.40
21331;DHT22;10824;51.632;4.950;2023-02-01T14:57:54;8.20;84.80
21331;DHT22;10824;51.632;4.950;2023-02-01T15:00:29;8.20;85.20
21331;DHT22;10824;51.632;4.950;2023-02-01T15:06:26;8.20;85.30
21331;DHT22;10824;51.632;4.950;2023-02-01T15:09:19;8.20;86.10
21331;DHT22;10824;51.632;4.950;2023-02-01T15:14:23;8.20;86.40
21331;DHT22;10824;51.632;4.950;2023-02-01T15:16:51;8.20;86.60
21331;DHT22;10824;51.632;4.950;2023-02-01T15:19:22;8.10;86.80
21331;DHT22;10824;51.632;4.950;2023-02-01T15:21:53;8.20;86.60
21331;DHT22;10824;51.632;4.950;2023-02-01T15:24:29;8.20;85.20
21331;DHT22;10824;51.632;4.950;2023-02-01T15:27:03;8.20;85.10
21331;DHT22;10824;51.632;4.950;2023-02-01T15:29:31;8.20;85.30
21331;DHT22;10824;51.632;4.950;2023-02-01T15:32:00;8.20;85.40
21331;DHT22;10824;51.632;4.950;2023-02-01T15:34:49;8.20;85.10
21331;DHT22;10824;51.632;4.950;2023-02-01T15:37:17;8.20;84.80
21331;DHT22;10824;51.632;4.950;2023-02-01T15:42:54;8.30;84.80
21331;DHT22;10824;51.632;4.950;2023-02-01T15:45:26;8.30;84.50
21331;DHT22;10824;51.632;4.950;2023-02-01T15:47:55;8.30;84.50
21331;DHT22;10824;51.632;4.950;2023-02-01T15:50:24;8.30;84.60
21331;DHT22;10824;51.632;4.950;2023-02-01T15:52:53;8.20;85.00
21331;DHT22;10824;51.632;4.950;2023-02-01T15:55:36;8.20;85.00
21331;DHT22;10824;51.632;4.950;2023-02-01T15:58:23;8.20;84.80
21331;DHT22;10824;51.632;4.950;2023-02-01T16:00:55;8.20;84.90
21331;DHT22;10824;51.632;4.950;2023-02-01T16:03:37;8.20;85.20
21331;DHT22;10824;51.632;4.950;2023-02-01T16:08:51;8.20;85.40
21331;DHT22;10824;51.632;4.950;2023-02-01T16:11:30;8.20;85.70
21331;DHT22;10824;51.632;4.950;2023-02-01T16:13:59;8.20;86.20
21331;DHT22;10824;51.632;4.950;2023-02-01T16:16:28;8.20;86.20
21331;DHT22;10824;51.632;4.950;2023-02-01T16:18:55;8.20;86.80
21331;DHT22;10824;51.632;4.950;2023-02-01T16:21:22;8.20;86.90
21331;DHT22;10824;51.632;4.950;2023-02-01T16:23:53;8.20;87.00
21331;DHT22;10824;51.632;4.950;2023-02-01T16:26:20;8.20;86.30
21331;DHT22;10824;51.632;4.950;2023-02-01T16:28:48;8.20;86.40
21331;DHT22;10824;51.632;4.950;2023-02-01T16:31:17;8.20;87.10
21331;DHT22;10824;51.632;4.950;2023-02-01T16:33:54;8.20;86.50
21331;DHT22;10824;51.632;4.950;2023-02-01T16:36:24;8.20;86.40
21331;DHT22;10824;51.632;4.950;2023-02-01T16:39:00;8.20;86.40
21331;DHT22;10824;51.632;4.950;2023-02-01T16:41:38;8.20;86.50
21331;DHT22;10824;51.632;4.950;2023-02-01T16:44:09;8.30;86.60
21331;DHT22;10824;51.632;4.950;2023-02-01T16:46:41;8.30;86.80
21331;DHT22;10824;51.632;4.950;2023-02-01T16:49:28;8.20;86.50
21331;DHT22;10824;51.632;4.950;2023-02-01T16:51:58;8.20;86.80
21331;DHT22;10824;51.632;4.950;2023-02-01T16:54:26;8.20;87.50
21331;DHT22;10824;51.632;4.950;2023-02-01T16:56:59;8.20;87.90
21331;DHT22;10824;51.632;4.950;2023-02-01T16:59:36;8.20;87.50
21331;DHT22;10824;51.632;4.950;2023-02-01T17:02:06;8.20;87.80
21331;DHT22;10824;51.632;4.950;2023-02-01T17:04:33;8.10;88.10
21331;DHT22;10824;51.632;4.950;2023-02-01T17:07:05;8.10;88.40
21331;DHT22;10824;51.632;4.950;2023-02-01T17:09:36;8.10;88.30
21331;DHT22;10824;51.632;4.950;2023-02-01T17:12:14;8.10;89.10
21331;DHT22;10824;51.632;4.950;2023-02-01T17:15:02;8.10;89.30
21331;DHT22;10824;51.632;4.950;2023-02-01T17:17:35;8.10;89.50
21331;DHT22;10824;51.632;4.950;2023-02-01T17:20:30;8.10;90.00
21331;DHT22;10824;51.632;4.950;2023-02-01T17:22:59;8.10;89.90
21331;DHT22;10824;51.632;4.950;2023-02-01T17:25:29;8.10;90.30
21331;DHT22;10824;51.632;4.950;2023-02-01T17:28:01;8.10;89.80
21331;DHT22;10824;51.632;4.950;2023-02-01T17:30:28;8.10;89.50
21331;DHT22;10824;51.632;4.950;2023-02-01T17:33:25;8.10;89.50
21331;DHT22;10824;51.632;4.950;2023-02-01T17:35:54;8.10;89.40
21331;DHT22;10824;51.632;4.950;2023-02-01T17:38:23;8.10;89.50
21331;DHT22;10824;51.632;4.950;2023-02-01T17:40:50;8.10;90.10
21331;DHT22;10824;51.632;4.950;2023-02-01T17:43:23;8.10;90.10
21331;DHT22;10824;51.632;4.950;2023-02-01T17:48:54;8.10;90.30
21331;DHT22;10824;51.632;4.950;2023-02-01T17:51:24;8.20;90.00
21331;DHT22;10824;51.632;4.950;2023-02-01T17:53:53;8.10;90.20
21331;DHT22;10824;51.632;4.950;2023-02-01T17:56:26;8.20;90.40
21331;DHT22;10824;51.632;4.950;2023-02-01T17:58:54;8.20;90.10
21331;DHT22;10824;51.632;4.950;2023-02-01T18:01:24;8.20;89.70
21331;DHT22;10824;51.632;4.950;2023-02-01T18:03:55;8.20;90.00
21331;DHT22;10824;51.632;4.950;2023-02-01T18:06:25;8.20;90.30
21331;DHT22;10824;51.632;4.950;2023-02-01T18:08:53;8.20;90.30
21331;DHT22;10824;51.632;4.950;2023-02-01T18:11:22;8.20;90.50
21331;DHT22;10824;51.632;4.950;2023-02-01T18:13:52;8.20;90.70
21331;DHT22;10824;51.632;4.950;2023-02-01T18:16:31;8.20;90.70
21331;DHT22;10824;51.632;4.950;2023-02-01T18:18:59;8.30;89.60
21331;DHT22;10824;51.632;4.950;2023-02-01T18:21:41;8.30;89.50
21331;DHT22;10824;51.632;4.950;2023-02-01T18:24:12;8.30;89.50
21331;DHT22;10824;51.632;4.950;2023-02-01T18:26:42;8.40;89.20
21331;DHT22;10824;51.632;4.950;2023-02-01T18:29:12;8.40;89.00
21331;DHT22;10824;51.632;4.950;2023-02-01T18:31:48;8.40;89.40
21331;DHT22;10824;51.632;4.950;2023-02-01T18:34:17;8.40;89.50
21331;DHT22;10824;51.632;4.950;2023-02-01T18:36:51;8.40;89.20
21331;DHT22;10824;51.632;4.950;2023-02-01T18:39:23;8.40;89.40
21331;DHT22;10824;51.632;4.950;2023-02-01T18:41:50;8.40;89.40
21331;DHT22;10824;51.632;4.950;2023-02-01T18:44:19;8.40;90.20
21331;DHT22;10824;51.632;4.950;2023-02-01T18:46:47;8.40;90.70
21331;DHT22;10824;51.632;4.950;2023-02-01T18:49:14;8.40;89.70
21331;DHT22;10824;51.632;4.950;2023-02-01T18:51:44;8.50;89.70
21331;DHT22;10824;51.632;4.950;2023-02-01T18:54:12;8.40;89.60
21331;DHT22;10824;51.632;4.950;2023-02-01T18:56:42;8.40;90.50
21331;DHT22;10824;51.632;4.950;2023-02-01T18:59:13;8.40;91.30
21331;DHT22;10824;51.632;4.950;2023-02-01T19:01:40;8.40;91.30
21331;DHT22;10824;51.632;4.950;2023-02-01T19:04:15;8.30;91.60
21331;DHT22;10824;51.632;4.950;2023-02-01T19:06:52;8.30;91.90